createdAt,value
2019-01-27T00:00:11.362Z,0.00
2019-01-27T00:01:11.398Z,0.00
2019-01-27T00:02:11.571Z,0.00
2019-01-27T00:03:11.452Z,0.00
2019-01-27T00:04:11.368Z,0.00
2019-01-27T00:05:11.393Z,0.00
2019-01-27T00:06:11.372Z,0.00
2019-01-27T00:07:11.378Z,0.00
2019-01-27T00:08:13.647Z,0.00
2019-01-27T00:09:11.436Z,0.00
2019-01-27T00:10:11.412Z,0.00
2019-01-27T00:11:11.417Z,0.00
2019-01-27T00:12:11.403Z,0.00
2019-01-27T00:13:11.489Z,0.00
2019-01-27T00:14:11.425Z,0.00
2019-01-27T00:15:11.438Z,0.00
2019-01-27T00:16:11.454Z,0.00
2019-01-27T00:17:11.464Z,0.00
2019-01-27T00:18:11.437Z,0.00
2019-01-27T00:19:11.457Z,0.00
2019-01-27T00:20:11.435Z,0.00
2019-01-27T00:21:11.472Z,0.00
2019-01-27T00:22:11.445Z,0.00
2019-01-27T00:23:11.474Z,0.00
2019-01-27T00:24:11.525Z,0.00
2019-01-27T00:25:11.458Z,0.00
2019-01-27T00:26:11.487Z,0.00
2019-01-27T00:27:11.469Z,0.00
2019-01-27T00:28:11.477Z,0.00
2019-01-27T00:29:11.481Z,0.00
2019-01-27T00:30:11.698Z,0.00
2019-01-27T00:31:11.530Z,0.00
2019-01-27T00:32:11.527Z,0.00
2019-01-27T00:33:11.484Z,0.00
2019-01-27T00:34:11.494Z,0.00
2019-01-27T00:35:11.526Z,0.00
2019-01-27T00:36:11.527Z,0.00
2019-01-27T00:37:11.542Z,0.00
2019-01-27T00:38:11.536Z,0.00
2019-01-27T00:39:11.617Z,0.00
2019-01-27T00:40:11.520Z,0.00
2019-01-27T00:41:11.525Z,0.00
2019-01-27T00:42:11.690Z,0.00
2019-01-27T00:43:11.542Z,0.00
2019-01-27T00:44:11.568Z,0.00
2019-01-27T00:45:11.536Z,0.00
2019-01-27T00:46:11.556Z,0.00
2019-01-27T00:47:11.538Z,0.00
2019-01-27T00:48:11.593Z,0.00
2019-01-27T00:49:11.549Z,0.00
2019-01-27T00:50:11.551Z,0.00
2019-01-27T00:51:11.587Z,0.00
2019-01-27T00:52:11.578Z,0.00
2019-01-27T00:53:11.575Z,0.00
2019-01-27T00:54:11.599Z,0.00
2019-01-27T00:55:11.600Z,0.00
2019-01-27T00:56:11.596Z,0.00
2019-01-27T00:57:11.623Z,0.00
2019-01-27T00:58:11.590Z,0.00
2019-01-27T00:59:11.583Z,0.00
2019-01-27T01:00:11.602Z,0.00
2019-01-27T01:01:11.602Z,0.00
2019-01-27T01:02:11.669Z,0.00
2019-01-27T01:03:11.610Z,0.00
2019-01-27T01:04:11.627Z,0.00
2019-01-27T01:05:11.632Z,0.00
2019-01-27T01:06:11.651Z,0.00
2019-01-27T01:07:11.629Z,0.00
2019-01-27T01:08:11.695Z,0.00
2019-01-27T01:09:11.627Z,0.00
2019-01-27T01:10:11.644Z,0.00
2019-01-27T01:11:11.693Z,0.00
2019-01-27T01:12:11.652Z,0.00
2019-01-27T01:13:11.654Z,0.00
2019-01-27T01:14:11.672Z,0.00
2019-01-27T01:15:11.671Z,0.00
2019-01-27T01:16:11.666Z,0.00
2019-01-27T01:17:11.685Z,0.00
2019-01-27T01:18:11.674Z,0.00
2019-01-27T01:19:11.676Z,0.00
2019-01-27T01:20:11.673Z,0.00
2019-01-27T01:21:11.683Z,0.00
2019-01-27T01:22:11.706Z,0.00
2019-01-27T01:23:11.680Z,0.00
2019-01-27T01:24:11.696Z,0.00
2019-01-27T01:25:11.706Z,0.00
2019-01-27T01:26:11.690Z,0.00
2019-01-27T01:27:11.716Z,0.00
2019-01-27T01:28:11.736Z,0.00
2019-01-27T01:29:11.719Z,0.00
2019-01-27T01:30:11.738Z,0.00
2019-01-27T01:31:11.724Z,0.00
2019-01-27T01:32:11.725Z,0.00
2019-01-27T01:33:11.766Z,0.00
2019-01-27T01:34:11.760Z,0.00
2019-01-27T01:35:11.730Z,0.00
2019-01-27T01:36:11.744Z,0.00
2019-01-27T01:37:11.754Z,0.00
2019-01-27T01:38:11.776Z,0.00
2019-01-27T01:39:11.776Z,0.00
2019-01-27T01:40:11.754Z,0.00
2019-01-27T01:41:11.765Z,0.00
2019-01-27T01:42:11.757Z,0.00
2019-01-27T01:43:11.781Z,0.00
2019-01-27T01:44:11.809Z,0.00
2019-01-27T01:45:11.776Z,0.00
2019-01-27T01:46:11.783Z,0.00
2019-01-27T01:47:11.774Z,0.00
2019-01-27T01:48:11.791Z,0.00
2019-01-27T01:49:11.805Z,0.00
2019-01-27T01:50:11.788Z,0.00
2019-01-27T01:51:11.826Z,0.00
2019-01-27T01:52:11.803Z,0.00
2019-01-27T01:53:11.824Z,0.00
2019-01-27T01:54:11.831Z,0.00
2019-01-27T01:55:11.867Z,0.00
2019-01-27T01:56:11.913Z,0.00
2019-01-27T01:57:11.821Z,0.00
2019-01-27T01:58:11.835Z,0.00
2019-01-27T01:59:11.859Z,0.00
2019-01-27T02:00:11.836Z,0.00
2019-01-27T02:01:11.829Z,0.00
2019-01-27T02:02:11.861Z,0.00
2019-01-27T02:03:11.851Z,0.00
2019-01-27T02:04:11.904Z,0.00
2019-01-27T02:05:11.927Z,0.00
2019-01-27T02:06:11.867Z,0.00
2019-01-27T02:07:11.866Z,0.00
2019-01-27T02:08:11.882Z,0.00
2019-01-27T02:09:11.880Z,0.00
2019-01-27T02:10:11.867Z,0.00
2019-01-27T02:11:11.901Z,0.00
2019-01-27T02:12:11.899Z,0.00
2019-01-27T02:13:11.874Z,0.00
2019-01-27T02:14:11.882Z,0.00
2019-01-27T02:15:11.881Z,0.00
2019-01-27T02:16:11.906Z,0.00
2019-01-27T02:17:11.930Z,0.00
2019-01-27T02:18:11.895Z,0.00
2019-01-27T02:19:11.932Z,0.00
2019-01-27T02:20:11.917Z,0.00
2019-01-27T02:21:11.939Z,0.00
2019-01-27T02:22:11.928Z,0.00
2019-01-27T02:23:11.926Z,0.00
2019-01-27T02:24:11.925Z,0.00
2019-01-27T02:25:11.933Z,0.00
2019-01-27T02:26:12.003Z,0.00
2019-01-27T02:27:11.950Z,0.00
2019-01-27T02:28:11.985Z,0.00
2019-01-27T02:29:11.939Z,0.00
2019-01-27T02:30:11.961Z,0.00
2019-01-27T02:31:12.047Z,0.00
2019-01-27T02:32:11.985Z,0.00
2019-01-27T02:33:11.973Z,0.00
2019-01-27T02:34:11.971Z,0.00
2019-01-27T02:35:11.979Z,0.00
2019-01-27T02:36:11.979Z,0.00
2019-01-27T02:37:12.027Z,0.00
2019-01-27T02:38:12.000Z,0.00
2019-01-27T02:39:11.988Z,0.00
2019-01-27T02:40:12.007Z,0.00
2019-01-27T02:41:11.989Z,0.00
2019-01-27T02:42:11.997Z,0.00
2019-01-27T02:43:12.035Z,0.00
2019-01-27T02:44:11.997Z,0.00
2019-01-27T02:45:12.043Z,0.00
2019-01-27T02:46:12.027Z,0.00
2019-01-27T02:47:12.028Z,0.00
2019-01-27T02:48:12.013Z,0.00
2019-01-27T02:49:12.046Z,0.00
2019-01-27T02:50:12.035Z,0.00
2019-01-27T02:51:12.043Z,0.00
2019-01-27T02:52:12.039Z,0.00
2019-01-27T02:53:12.075Z,0.00
2019-01-27T02:54:12.078Z,0.00
2019-01-27T02:55:12.059Z,0.00
2019-01-27T02:56:12.067Z,0.00
2019-01-27T02:57:12.070Z,0.00
2019-01-27T02:58:12.075Z,0.00
2019-01-27T02:59:12.082Z,0.00
2019-01-27T03:00:12.088Z,0.00
2019-01-27T03:01:12.085Z,0.00
2019-01-27T03:02:12.080Z,0.00
2019-01-27T03:03:12.079Z,0.00
2019-01-27T03:04:12.144Z,0.00
2019-01-27T03:05:12.094Z,0.00
2019-01-27T03:06:12.079Z,0.00
2019-01-27T03:07:12.087Z,0.00
2019-01-27T03:08:12.138Z,0.00
2019-01-27T03:09:12.096Z,0.00
2019-01-27T03:10:12.115Z,0.00
2019-01-27T03:11:12.155Z,0.00
2019-01-27T03:12:12.121Z,0.00
2019-01-27T03:13:12.223Z,0.00
2019-01-27T03:14:12.105Z,0.00
2019-01-27T03:15:12.189Z,0.00
2019-01-27T03:16:12.142Z,0.00
2019-01-27T03:17:12.133Z,0.00
2019-01-27T03:18:12.132Z,0.00
2019-01-27T03:19:12.136Z,0.00
2019-01-27T03:20:12.137Z,0.00
2019-01-27T03:21:12.171Z,0.00
2019-01-27T03:22:12.189Z,0.00
2019-01-27T03:23:12.168Z,0.00
2019-01-27T03:24:12.204Z,0.00
2019-01-27T03:25:12.147Z,0.00
2019-01-27T03:26:12.198Z,0.00
2019-01-27T03:27:12.205Z,0.00
2019-01-27T03:28:12.175Z,0.00
2019-01-27T03:29:12.180Z,0.00
2019-01-27T03:30:12.171Z,0.00
2019-01-27T03:31:12.189Z,0.00
2019-01-27T03:32:12.369Z,0.00
2019-01-27T03:33:12.210Z,0.00
2019-01-27T03:34:12.207Z,0.00
2019-01-27T03:35:12.209Z,0.00
2019-01-27T03:36:12.209Z,0.00
2019-01-27T03:37:12.226Z,0.00
2019-01-27T03:38:12.252Z,0.00
2019-01-27T03:39:12.204Z,0.00
2019-01-27T03:40:12.271Z,0.00
2019-01-27T03:41:12.220Z,0.00
2019-01-27T03:42:12.219Z,0.00
2019-01-27T03:43:12.226Z,0.00
2019-01-27T03:44:12.313Z,0.00
2019-01-27T03:45:12.282Z,0.00
2019-01-27T03:46:12.280Z,0.00
2019-01-27T03:47:12.247Z,0.00
2019-01-27T03:48:12.262Z,0.00
2019-01-27T03:49:12.251Z,0.00
2019-01-27T03:50:12.270Z,0.00
2019-01-27T03:51:12.264Z,0.00
2019-01-27T03:52:12.275Z,0.00
2019-01-27T03:53:12.255Z,0.00
2019-01-27T03:54:12.271Z,0.00
2019-01-27T03:55:12.326Z,0.00
2019-01-27T03:56:12.273Z,0.00
2019-01-27T03:57:12.321Z,0.00
2019-01-27T03:58:12.320Z,0.00
2019-01-27T03:59:12.284Z,0.00
2019-01-27T04:00:12.283Z,0.00
2019-01-27T04:01:12.317Z,0.00
2019-01-27T04:02:12.318Z,0.00
2019-01-27T04:03:12.302Z,0.00
2019-01-27T04:04:12.367Z,0.00
2019-01-27T04:05:12.331Z,0.00
2019-01-27T04:06:12.314Z,0.00
2019-01-27T04:07:12.330Z,0.00
2019-01-27T04:08:12.344Z,0.00
2019-01-27T04:09:12.343Z,0.00
2019-01-27T04:10:12.337Z,0.00
2019-01-27T04:11:12.331Z,0.00
2019-01-27T04:12:12.374Z,0.00
2019-01-27T04:13:12.358Z,0.00
2019-01-27T04:14:12.382Z,0.00
2019-01-27T04:15:12.353Z,0.00
2019-01-27T04:16:12.368Z,0.00
2019-01-27T04:17:12.364Z,0.00
2019-01-27T04:18:12.385Z,0.00
2019-01-27T04:19:12.426Z,0.00
2019-01-27T04:20:12.367Z,0.00
2019-01-27T04:21:12.383Z,0.00
2019-01-27T04:22:12.403Z,0.00
2019-01-27T04:23:12.377Z,0.00
2019-01-27T04:24:12.427Z,0.00
2019-01-27T04:25:12.409Z,0.00
2019-01-27T04:26:12.412Z,0.00
2019-01-27T04:27:12.415Z,0.00
2019-01-27T04:28:12.400Z,0.00
2019-01-27T04:29:12.414Z,0.00
2019-01-27T04:30:12.438Z,0.00
2019-01-27T04:31:12.419Z,0.00
2019-01-27T04:32:12.427Z,0.00
2019-01-27T04:33:12.432Z,0.00
2019-01-27T04:34:12.423Z,0.00
2019-01-27T04:35:12.433Z,0.00
2019-01-27T04:36:12.502Z,0.00
2019-01-27T04:37:12.433Z,0.00
2019-01-27T04:38:12.439Z,0.00
2019-01-27T04:39:12.430Z,0.00
2019-01-27T04:40:12.464Z,0.00
2019-01-27T04:41:12.451Z,0.00
2019-01-27T04:42:12.467Z,0.00
2019-01-27T04:43:12.474Z,0.00
2019-01-27T04:44:12.461Z,0.00
2019-01-27T04:45:12.464Z,0.00
2019-01-27T04:46:12.494Z,0.00
2019-01-27T04:47:12.485Z,0.00
2019-01-27T04:48:12.477Z,0.00
2019-01-27T04:49:12.492Z,0.00
2019-01-27T04:50:12.499Z,0.00
2019-01-27T04:51:12.525Z,0.00
2019-01-27T04:52:12.490Z,0.00
2019-01-27T04:53:12.569Z,0.00
2019-01-27T04:54:12.573Z,0.00
2019-01-27T04:55:12.495Z,0.00
2019-01-27T04:56:12.500Z,0.00
2019-01-27T04:57:12.509Z,0.00
2019-01-27T04:58:12.520Z,0.00
2019-01-27T04:59:12.548Z,0.00
2019-01-27T05:00:12.521Z,0.00
2019-01-27T05:01:12.535Z,0.00
2019-01-27T05:02:12.574Z,0.00
2019-01-27T05:03:12.574Z,0.00
2019-01-27T05:04:12.537Z,0.00
2019-01-27T05:05:12.543Z,0.00
2019-01-27T05:06:12.545Z,0.00
2019-01-27T05:07:12.546Z,0.00
2019-01-27T05:08:12.589Z,0.00
2019-01-27T05:09:12.578Z,0.00
2019-01-27T05:10:12.552Z,0.00
2019-01-27T05:11:12.553Z,0.00
2019-01-27T05:12:12.577Z,0.00
2019-01-27T05:13:12.570Z,0.00
2019-01-27T05:14:12.625Z,0.00
2019-01-27T05:15:12.595Z,0.00
2019-01-27T05:16:12.571Z,0.00
2019-01-27T05:17:12.589Z,0.00
2019-01-27T05:18:12.589Z,0.00
2019-01-27T05:19:12.691Z,0.00
2019-01-27T05:20:12.609Z,0.00
2019-01-27T05:21:12.602Z,0.00
2019-01-27T05:22:12.603Z,0.00
2019-01-27T05:23:12.609Z,0.00
2019-01-27T05:24:12.673Z,0.00
2019-01-27T05:25:12.633Z,0.00
2019-01-27T05:26:12.634Z,0.00
2019-01-27T05:27:12.619Z,0.00
2019-01-27T05:28:12.638Z,0.00
2019-01-27T05:29:12.652Z,0.00
2019-01-27T05:30:12.653Z,0.00
2019-01-27T05:31:12.637Z,0.00
2019-01-27T05:32:12.650Z,0.00
2019-01-27T05:33:12.633Z,0.00
2019-01-27T05:34:12.681Z,0.00
2019-01-27T05:35:12.667Z,0.00
2019-01-27T05:36:12.669Z,0.00
2019-01-27T05:37:12.660Z,0.00
2019-01-27T05:38:12.673Z,0.00
2019-01-27T05:39:12.668Z,0.00
2019-01-27T05:40:12.701Z,0.00
2019-01-27T05:41:12.685Z,0.00
2019-01-27T05:42:12.691Z,0.00
2019-01-27T05:43:12.691Z,0.00
2019-01-27T05:44:12.692Z,0.00
2019-01-27T05:45:12.695Z,0.00
2019-01-27T05:46:12.711Z,0.00
2019-01-27T05:47:12.720Z,0.00
2019-01-27T05:48:12.698Z,0.00
2019-01-27T05:49:12.710Z,0.00
2019-01-27T05:50:12.745Z,0.00
2019-01-27T05:51:12.746Z,0.00
2019-01-27T05:52:12.722Z,0.00
2019-01-27T05:53:12.742Z,0.00
2019-01-27T05:54:12.733Z,0.00
2019-01-27T05:55:12.769Z,0.00
2019-01-27T05:56:12.731Z,0.00
2019-01-27T05:57:12.735Z,0.00
2019-01-27T05:58:12.753Z,0.00
2019-01-27T05:59:12.764Z,0.00
2019-01-27T06:00:12.752Z,0.00
2019-01-27T06:01:12.768Z,0.00
2019-01-27T06:02:12.762Z,0.00
2019-01-27T06:03:12.783Z,0.00
2019-01-27T06:04:12.749Z,0.00
2019-01-27T06:05:12.774Z,0.00
2019-01-27T06:06:12.758Z,0.00
2019-01-27T06:07:12.772Z,0.00
2019-01-27T06:08:12.777Z,0.00
2019-01-27T06:09:12.792Z,0.00
2019-01-27T06:10:12.789Z,0.00
2019-01-27T06:11:12.867Z,0.00
2019-01-27T06:12:12.794Z,0.00
2019-01-27T06:13:12.797Z,0.00
2019-01-27T06:14:12.812Z,0.00
2019-01-27T06:15:12.815Z,0.00
2019-01-27T06:16:12.887Z,0.00
2019-01-27T06:17:12.829Z,0.00
2019-01-27T06:18:12.815Z,0.00
2019-01-27T06:19:12.809Z,0.00
2019-01-27T06:20:12.840Z,0.00
2019-01-27T06:21:12.889Z,0.00
2019-01-27T06:22:12.856Z,0.00
2019-01-27T06:23:12.833Z,0.00
2019-01-27T06:24:12.823Z,0.00
2019-01-27T06:25:12.905Z,0.00
2019-01-27T06:26:12.843Z,0.00
2019-01-27T06:27:12.838Z,4.00
2019-01-27T06:28:12.855Z,4.00
2019-01-27T06:29:12.882Z,4.00
2019-01-27T06:30:12.888Z,0.00
2019-01-27T06:31:12.922Z,4.00
2019-01-27T06:32:12.860Z,4.00
2019-01-27T06:33:12.882Z,8.00
2019-01-27T06:34:12.873Z,8.00
2019-01-27T06:35:12.901Z,4.00
2019-01-27T06:36:12.913Z,12.00
2019-01-27T06:37:12.920Z,8.00
2019-01-27T06:38:12.914Z,12.00
2019-01-27T06:39:12.891Z,16.00
2019-01-27T06:40:12.915Z,20.00
2019-01-27T06:41:12.907Z,20.00
2019-01-27T06:42:12.890Z,24.00
2019-01-27T06:43:12.948Z,24.00
2019-01-27T06:44:12.910Z,28.00
2019-01-27T06:45:12.917Z,28.00
2019-01-27T06:46:12.956Z,28.00
2019-01-27T06:47:12.926Z,32.00
2019-01-27T06:48:12.931Z,32.00
2019-01-27T06:49:12.922Z,32.00
2019-01-27T06:50:12.941Z,28.00
2019-01-27T06:51:12.964Z,36.00
2019-01-27T06:52:12.970Z,36.00
2019-01-27T06:53:12.978Z,40.00
2019-01-27T06:54:12.974Z,40.00
2019-01-27T06:55:12.944Z,44.00
2019-01-27T06:56:12.951Z,48.00
2019-01-27T06:57:13.030Z,56.00
2019-01-27T06:58:12.963Z,72.00
2019-01-27T06:59:12.970Z,84.00
2019-01-27T07:00:12.971Z,100.00
2019-01-27T07:01:12.975Z,120.00
2019-01-27T07:02:12.970Z,128.00
2019-01-27T07:03:12.998Z,136.00
2019-01-27T07:04:12.977Z,140.00
2019-01-27T07:05:13.054Z,148.00
2019-01-27T07:06:12.994Z,164.00
2019-01-27T07:07:13.014Z,188.00
2019-01-27T07:08:13.022Z,200.00
2019-01-27T07:09:13.007Z,204.00
2019-01-27T07:10:13.012Z,204.00
2019-01-27T07:11:13.069Z,216.00
2019-01-27T07:12:13.029Z,252.00
2019-01-27T07:13:13.833Z,300.00
2019-01-27T07:14:13.113Z,352.00
2019-01-27T07:15:13.046Z,396.00
2019-01-27T07:16:13.043Z,428.00
2019-01-27T07:17:13.072Z,456.00
2019-01-27T07:18:13.043Z,496.00
2019-01-27T07:19:13.035Z,536.00
2019-01-27T07:20:13.056Z,568.00
2019-01-27T07:21:13.049Z,596.00
2019-01-27T07:22:13.049Z,600.00
2019-01-27T07:23:13.117Z,600.00
2019-01-27T07:24:13.063Z,588.00
2019-01-27T07:25:13.078Z,532.00
2019-01-27T07:26:13.076Z,520.00
2019-01-27T07:27:13.110Z,540.00
2019-01-27T07:28:13.080Z,536.00
2019-01-27T07:29:13.070Z,552.00
2019-01-27T07:30:13.247Z,596.00
2019-01-27T07:31:13.135Z,644.00
2019-01-27T07:32:13.100Z,652.00
2019-01-27T07:33:13.320Z,696.00
2019-01-27T07:34:13.118Z,680.00
2019-01-27T07:35:13.104Z,692.00
2019-01-27T07:36:13.109Z,680.00
2019-01-27T07:37:13.151Z,612.00
2019-01-27T07:38:13.228Z,584.00
2019-01-27T07:39:13.134Z,596.00
2019-01-27T07:40:13.161Z,656.00
2019-01-27T07:41:13.135Z,772.00
2019-01-27T07:42:13.165Z,768.00
2019-01-27T07:43:13.147Z,728.00
2019-01-27T07:44:13.174Z,768.00
2019-01-27T07:45:13.143Z,788.00
2019-01-27T07:46:13.193Z,768.00
2019-01-27T07:47:13.238Z,788.00
2019-01-27T07:48:13.171Z,812.00
2019-01-27T07:49:13.184Z,816.00
2019-01-27T07:50:13.222Z,776.00
2019-01-27T07:51:13.209Z,752.00
2019-01-27T07:52:13.181Z,776.00
2019-01-27T07:53:13.195Z,860.00
2019-01-27T07:54:13.238Z,1040.00
2019-01-27T07:55:13.198Z,1120.00
2019-01-27T07:56:13.177Z,1140.00
2019-01-27T07:57:13.210Z,1224.00
2019-01-27T07:58:13.296Z,1332.00
2019-01-27T07:59:13.225Z,1356.00
2019-01-27T08:00:13.191Z,1292.00
2019-01-27T08:01:13.282Z,1376.00
2019-01-27T08:02:13.391Z,1388.00
2019-01-27T08:03:13.250Z,1344.00
2019-01-27T08:04:13.305Z,1304.00
2019-01-27T08:05:13.420Z,1236.00
2019-01-27T08:06:13.314Z,1144.00
2019-01-27T08:07:13.266Z,1048.00
2019-01-27T08:08:13.251Z,964.00
2019-01-27T08:09:13.230Z,836.00
2019-01-27T08:10:13.302Z,692.00
2019-01-27T08:11:13.239Z,548.00
2019-01-27T08:12:13.257Z,444.00
2019-01-27T08:13:13.262Z,412.00
2019-01-27T08:14:13.259Z,404.00
2019-01-27T08:15:13.258Z,484.00
2019-01-27T08:16:13.307Z,640.00
2019-01-27T08:17:13.266Z,800.00
2019-01-27T08:18:13.283Z,856.00
2019-01-27T08:19:13.295Z,860.00
2019-01-27T08:20:13.506Z,980.00
2019-01-27T08:21:13.507Z,1352.00
2019-01-27T08:22:13.416Z,1780.00
2019-01-27T08:23:13.782Z,1988.00
2019-01-27T08:24:13.314Z,1852.00
2019-01-27T08:25:13.328Z,1692.00
2019-01-27T08:26:13.333Z,1888.00
2019-01-27T08:27:13.316Z,1892.00
2019-01-27T08:28:13.321Z,1924.00
2019-01-27T08:29:13.320Z,2200.00
2019-01-27T08:30:13.345Z,2328.00
2019-01-27T08:31:13.377Z,2316.00
2019-01-27T08:32:13.373Z,2400.00
2019-01-27T08:33:13.350Z,2604.00
2019-01-27T08:34:13.732Z,2896.00
2019-01-27T08:35:13.343Z,3152.00
2019-01-27T08:36:13.354Z,3184.00
2019-01-27T08:37:14.696Z,3060.00
2019-01-27T08:38:13.368Z,3188.00
2019-01-27T08:39:13.375Z,3476.00
2019-01-27T08:40:13.374Z,3588.00
2019-01-27T08:41:13.374Z,3564.00
2019-01-27T08:42:13.387Z,3844.00
2019-01-27T08:43:13.389Z,4248.00
2019-01-27T08:44:13.414Z,4356.00
2019-01-27T08:45:13.411Z,4652.00
2019-01-27T08:46:13.403Z,4936.00
2019-01-27T08:47:13.403Z,4956.00
2019-01-27T08:48:13.426Z,4688.00
2019-01-27T08:49:13.426Z,4484.00
2019-01-27T08:50:13.433Z,4188.00
2019-01-27T08:51:13.435Z,3800.00
2019-01-27T08:52:13.430Z,3572.00
2019-01-27T08:53:13.419Z,3440.00
2019-01-27T08:54:13.513Z,3032.00
2019-01-27T08:55:13.457Z,2664.00
2019-01-27T08:56:13.447Z,2476.00
2019-01-27T08:57:13.451Z,2384.00
2019-01-27T08:58:13.487Z,2296.00
2019-01-27T08:59:13.517Z,2056.00
2019-01-27T09:00:14.236Z,1740.00
2019-01-27T09:01:13.465Z,1444.00
2019-01-27T09:02:13.478Z,1400.00
2019-01-27T09:03:13.524Z,1448.00
2019-01-27T09:04:13.495Z,1468.00
2019-01-27T09:05:13.548Z,1416.00
2019-01-27T09:06:13.537Z,1440.00
2019-01-27T09:07:13.563Z,1824.00
2019-01-27T09:08:13.534Z,2128.00
2019-01-27T09:09:13.490Z,2368.00
2019-01-27T09:10:13.511Z,2512.00
2019-01-27T09:11:13.780Z,2796.00
2019-01-27T09:12:13.547Z,3004.00
2019-01-27T09:13:13.587Z,3300.00
2019-01-27T09:14:13.511Z,3600.00
2019-01-27T09:15:13.544Z,4048.00
2019-01-27T09:16:13.554Z,4484.00
2019-01-27T09:17:13.568Z,4628.00
2019-01-27T09:18:13.543Z,4904.00
2019-01-27T09:19:13.545Z,5652.00
2019-01-27T09:20:13.558Z,6384.00
2019-01-27T09:21:13.587Z,6896.00
2019-01-27T09:22:13.566Z,7228.00
2019-01-27T09:23:13.592Z,7524.00
2019-01-27T09:24:13.609Z,7836.00
2019-01-27T09:25:13.627Z,7796.00
2019-01-27T09:26:13.574Z,7912.00
2019-01-27T09:27:13.596Z,8000.00
2019-01-27T09:28:13.593Z,7980.00
2019-01-27T09:29:13.594Z,7944.00
2019-01-27T09:30:13.617Z,7940.00
2019-01-27T09:31:13.664Z,7736.00
2019-01-27T09:32:13.602Z,7608.00
2019-01-27T09:33:13.614Z,7500.00
2019-01-27T09:34:13.611Z,7380.00
2019-01-27T09:35:13.613Z,7324.00
2019-01-27T09:36:13.650Z,7200.00
2019-01-27T09:37:13.690Z,6900.00
2019-01-27T09:38:13.670Z,6472.00
2019-01-27T09:39:13.668Z,5896.00
2019-01-27T09:40:13.665Z,5448.00
2019-01-27T09:41:13.679Z,5116.00
2019-01-27T09:42:13.650Z,4880.00
2019-01-27T09:43:13.719Z,4828.00
2019-01-27T09:44:13.672Z,4844.00
2019-01-27T09:45:13.675Z,4932.00
2019-01-27T09:46:13.722Z,5156.00
2019-01-27T09:47:13.696Z,5288.00
2019-01-27T09:48:13.728Z,5296.00
2019-01-27T09:49:13.727Z,5248.00
2019-01-27T09:50:13.704Z,4924.00
2019-01-27T09:51:13.719Z,4448.00
2019-01-27T09:52:13.728Z,4188.00
2019-01-27T09:53:13.823Z,3920.00
2019-01-27T09:54:13.780Z,3704.00
2019-01-27T09:55:13.757Z,3592.00
2019-01-27T09:56:13.735Z,3844.00
2019-01-27T09:57:13.767Z,4720.00
2019-01-27T09:58:13.744Z,5508.00
2019-01-27T09:59:13.746Z,5588.00
2019-01-27T10:00:13.850Z,5540.00
2019-01-27T10:01:13.786Z,4944.00
2019-01-27T10:02:13.778Z,4152.00
2019-01-27T10:03:13.771Z,3744.00
2019-01-27T10:04:13.840Z,3104.00
2019-01-27T10:05:13.807Z,2832.00
2019-01-27T10:06:15.020Z,3116.00
2019-01-27T10:07:13.812Z,3496.00
2019-01-27T10:08:13.818Z,4336.00
2019-01-27T10:09:13.833Z,4456.00
2019-01-27T10:10:13.814Z,4320.00
2019-01-27T10:11:13.845Z,4484.00
2019-01-27T10:12:13.851Z,4728.00
2019-01-27T10:13:13.918Z,4976.00
2019-01-27T10:14:13.836Z,4672.00
2019-01-27T10:15:13.900Z,4324.00
2019-01-27T10:16:13.870Z,3940.00
2019-01-27T10:17:13.854Z,3928.00
2019-01-27T10:18:13.863Z,4360.00
2019-01-27T10:19:13.867Z,4184.00
2019-01-27T10:20:13.895Z,4164.00
2019-01-27T10:21:13.918Z,3680.00
2019-01-27T10:22:13.865Z,3424.00
2019-01-27T10:23:13.886Z,3644.00
2019-01-27T10:24:13.881Z,4080.00
2019-01-27T10:25:16.094Z,4544.00
2019-01-27T10:26:13.904Z,5044.00
2019-01-27T10:27:13.957Z,5632.00
2019-01-27T10:28:13.898Z,6128.00
2019-01-27T10:29:13.909Z,5704.00
2019-01-27T10:30:13.939Z,5392.00
2019-01-27T10:31:13.915Z,5524.00
2019-01-27T10:32:14.112Z,5884.00
2019-01-27T10:33:13.967Z,5952.00
2019-01-27T10:34:13.968Z,6116.00
2019-01-27T10:35:13.974Z,6216.00
2019-01-27T10:36:13.941Z,6136.00
2019-01-27T10:37:13.975Z,6268.00
2019-01-27T10:38:14.028Z,6532.00
2019-01-27T10:39:14.000Z,6716.00
2019-01-27T10:40:13.978Z,6944.00
2019-01-27T10:41:13.993Z,7020.00
2019-01-27T10:42:13.988Z,6656.00
2019-01-27T10:43:14.111Z,6072.00
2019-01-27T10:44:14.107Z,5444.00
2019-01-27T10:45:14.033Z,4968.00
2019-01-27T10:46:14.006Z,4432.00
2019-01-27T10:47:14.216Z,3888.00
2019-01-27T10:48:14.067Z,3568.00
2019-01-27T10:49:15.297Z,3372.00
2019-01-27T10:50:14.150Z,3400.00
2019-01-27T10:51:14.043Z,3364.00
2019-01-27T10:52:14.081Z,3552.00
2019-01-27T10:53:14.110Z,3352.00
2019-01-27T10:54:14.168Z,3068.00
2019-01-27T10:55:14.433Z,3208.00
2019-01-27T10:56:14.082Z,3252.00
2019-01-27T10:57:14.065Z,3576.00
2019-01-27T10:58:14.072Z,3840.00
2019-01-27T10:59:14.234Z,3920.00
2019-01-27T11:00:14.240Z,3804.00
2019-01-27T11:01:14.092Z,3920.00
2019-01-27T11:02:14.144Z,3952.00
2019-01-27T11:03:14.125Z,3792.00
2019-01-27T11:04:14.135Z,3604.00
2019-01-27T11:05:14.170Z,3420.00
2019-01-27T11:06:14.130Z,3232.00
2019-01-27T11:07:14.124Z,2992.00
2019-01-27T11:08:14.193Z,2464.00
2019-01-27T11:09:14.121Z,2556.00
2019-01-27T11:10:14.137Z,2736.00
2019-01-27T11:11:14.143Z,2992.00
2019-01-27T11:12:14.199Z,3340.00
2019-01-27T11:13:14.213Z,3492.00
2019-01-27T11:14:14.308Z,3072.00
2019-01-27T11:15:14.286Z,3688.00
2019-01-27T11:16:14.216Z,4864.00
2019-01-27T11:17:14.258Z,4912.00
2019-01-27T11:18:14.218Z,4748.00
2019-01-27T11:19:14.234Z,4292.00
2019-01-27T11:20:14.299Z,4216.00
2019-01-27T11:21:14.275Z,4112.00
2019-01-27T11:22:14.241Z,4944.00
2019-01-27T11:23:14.299Z,5808.00
2019-01-27T11:24:14.285Z,6072.00
2019-01-27T11:25:14.276Z,6476.00
2019-01-27T11:26:14.324Z,5660.00
2019-01-27T11:27:14.371Z,5576.00
2019-01-27T11:28:14.247Z,5696.00
2019-01-27T11:29:14.271Z,5448.00
2019-01-27T11:30:14.442Z,5540.00
2019-01-27T11:31:14.274Z,5008.00
2019-01-27T11:32:14.270Z,4576.00
2019-01-27T11:33:14.365Z,3980.00
2019-01-27T11:34:14.283Z,4332.00
2019-01-27T11:35:14.313Z,4536.00
2019-01-27T11:36:14.284Z,4996.00
2019-01-27T11:37:14.293Z,5492.00
2019-01-27T11:38:14.312Z,5368.00
2019-01-27T11:39:14.340Z,5264.00
2019-01-27T11:40:14.387Z,5396.00
2019-01-27T11:41:14.313Z,5488.00
2019-01-27T11:42:14.294Z,5772.00
2019-01-27T11:43:14.314Z,5856.00
2019-01-27T11:44:14.335Z,5708.00
2019-01-27T11:45:14.350Z,5676.00
2019-01-27T11:46:14.366Z,5592.00
2019-01-27T11:47:14.365Z,5708.00
2019-01-27T11:48:14.359Z,5600.00
2019-01-27T11:49:14.364Z,5484.00
2019-01-27T11:50:14.404Z,5808.00
2019-01-27T11:51:14.437Z,6104.00
2019-01-27T11:52:15.616Z,6116.00
2019-01-27T11:53:14.374Z,5872.00
2019-01-27T11:54:14.410Z,5588.00
2019-01-27T11:55:14.369Z,4436.00
2019-01-27T11:56:14.411Z,3216.00
2019-01-27T11:57:14.382Z,2884.00
2019-01-27T11:58:14.406Z,3564.00
2019-01-27T11:59:14.422Z,4212.00
2019-01-27T12:00:14.573Z,4564.00
2019-01-27T12:01:14.474Z,4788.00
2019-01-27T12:02:14.442Z,4576.00
2019-01-27T12:03:14.437Z,4156.00
2019-01-27T12:04:14.447Z,4088.00
2019-01-27T12:05:14.435Z,3988.00
2019-01-27T12:06:14.452Z,3400.00
2019-01-27T12:07:14.474Z,3048.00
2019-01-27T12:08:14.531Z,2704.00
2019-01-27T12:09:14.488Z,2516.00
2019-01-27T12:10:14.512Z,2276.00
2019-01-27T12:11:14.465Z,3020.00
2019-01-27T12:12:14.501Z,2908.00
2019-01-27T12:13:14.507Z,3316.00
2019-01-27T12:14:14.517Z,3580.00
2019-01-27T12:15:14.491Z,3712.00
2019-01-27T12:16:14.486Z,3616.00
2019-01-27T12:17:14.555Z,3324.00
2019-01-27T12:18:14.539Z,3484.00
2019-01-27T12:19:14.566Z,3160.00
2019-01-27T12:20:14.613Z,3452.00
2019-01-27T12:21:14.521Z,3424.00
2019-01-27T12:22:14.528Z,3748.00
2019-01-27T12:23:14.551Z,3764.00
2019-01-27T12:24:14.560Z,3296.00
2019-01-27T12:25:14.596Z,2884.00
2019-01-27T12:26:14.585Z,3392.00
2019-01-27T12:27:14.568Z,3536.00
2019-01-27T12:28:14.641Z,3544.00
2019-01-27T12:29:14.634Z,3272.00
2019-01-27T12:30:14.591Z,2776.00
2019-01-27T12:31:14.637Z,2540.00
2019-01-27T12:32:14.591Z,2404.00
2019-01-27T12:33:14.662Z,2264.00
2019-01-27T12:34:14.611Z,1992.00
2019-01-27T12:35:14.678Z,2008.00
2019-01-27T12:36:14.612Z,2076.00
2019-01-27T12:37:14.661Z,2088.00
2019-01-27T12:38:14.660Z,2516.00
2019-01-27T12:39:14.612Z,2936.00
2019-01-27T12:40:14.690Z,3508.00
2019-01-27T12:41:14.662Z,4104.00
2019-01-27T12:42:14.693Z,4384.00
2019-01-27T12:43:14.648Z,4964.00
2019-01-27T12:44:14.689Z,5480.00
2019-01-27T12:45:14.700Z,5828.00